Time;durP1;ratioP1;P1;durP2;ratioP2;P2;SDS_P1;SDS_P2;PMS_P1;PMS_P2;Temp;Humidity;BMP_temperature;BMP_pressure;BME280_temperature;BME280_humidity;BME280_pressure;Samples;Min_cycle;Max_cycle;Signal;HPM_P1;HPM_P2
2022/01/30 00:01:01;;;;;;;1.83;0.70;;;3.90;99.90;;;;;;5063402;28;20204;-67
2022/01/30 00:03:27;;;;;;;1.40;0.70;;;3.90;99.90;;;;;;5065245;28;20191;-67
2022/01/30 00:05:53;;;;;;;1.43;0.70;;;3.90;99.90;;;;;;5057065;28;20416;-67
2022/01/30 00:08:19;;;;;;;1.70;0.70;;;3.90;99.90;;;;;;5065102;28;20512;-67
2022/01/30 00:10:46;;;;;;;1.87;0.57;;;3.90;99.90;;;;;;5068479;28;20215;-67
2022/01/30 00:13:15;;;;;;;1.20;0.60;;;3.90;99.90;;;;;;5071580;28;20677;-67
2022/01/30 00:15:53;;;;;;;1.20;0.57;;;4.00;99.90;;;;;;5071526;28;20415;-67
2022/01/30 00:21:12;;;;;;;1.50;0.80;;;4.00;99.90;;;;;;5071415;28;20541;-67
2022/01/30 00:23:45;;;;;;;1.60;0.80;;;4.00;99.90;;;;;;5078222;28;20856;-67
2022/01/30 00:26:14;;;;;;;1.37;0.80;;;4.00;99.90;;;;;;5071573;28;20408;-67
2022/01/30 00:28:40;;;;;;;1.50;0.70;;;4.10;99.90;;;;;;5071637;28;20427;-67
2022/01/30 00:31:06;;;;;;;1.40;0.70;;;4.10;99.90;;;;;;5064163;28;20456;-67
2022/01/30 00:33:32;;;;;;;1.50;0.67;;;4.10;99.90;;;;;;5071272;28;20419;-67
2022/01/30 00:35:57;;;;;;;1.10;0.50;;;4.10;99.90;;;;;;5071195;28;20220;-67
2022/01/30 00:38:23;;;;;;;8.20;1.50;;;4.10;99.90;;;;;;5066872;28;20193;-67
2022/01/30 00:40:51;;;;;;;1.90;0.90;;;4.10;99.90;;;;;;5058202;28;20201;-67
2022/01/30 00:43:18;;;;;;;1.53;0.70;;;4.10;99.90;;;;;;5069044;28;20423;-66
2022/01/30 00:45:44;;;;;;;1.73;0.80;;;4.20;99.90;;;;;;5068862;28;20462;-66
2022/01/30 00:48:10;;;;;;;2.37;1.00;;;4.10;99.90;;;;;;5057119;28;20415;-66
2022/01/30 00:50:36;;;;;;;1.60;0.83;;;4.20;99.90;;;;;;5071353;28;20444;-66
2022/01/30 00:53:02;;;;;;;1.60;0.77;;;4.30;99.90;;;;;;5077826;28;20615;-66
2022/01/30 00:55:29;;;;;;;1.50;0.87;;;4.30;99.90;;;;;;5053859;28;20503;-66
2022/01/30 00:57:56;;;;;;;1.30;0.63;;;4.30;99.90;;;;;;5069151;28;20470;-66
2022/01/30 01:00:24;;;;;;;1.80;0.73;;;4.30;99.90;;;;;;5065900;28;20864;-66
2022/01/30 01:02:50;;;;;;;1.80;0.63;;;4.30;99.90;;;;;;5065762;28;20825;-66
2022/01/30 01:05:16;;;;;;;1.50;0.90;;;4.30;99.90;;;;;;5072515;28;20407;-66
2022/01/30 01:07:45;;;;;;;1.60;0.83;;;4.30;99.90;;;;;;5054372;28;20444;-65
2022/01/30 01:10:26;;;;;;;1.40;0.70;;;4.40;99.90;;;;;;5070370;28;20426;-66
2022/01/30 01:23:51;;;;;;;1.57;0.80;;;4.30;99.90;;;;;;5074212;28;20911;-67
2022/01/30 01:26:18;;;;;;;1.87;0.80;;;4.30;99.90;;;;;;5074173;28;20422;-67
2022/01/30 01:28:44;;;;;;;2.70;0.80;;;4.30;99.90;;;;;;5073511;28;20507;-67
2022/01/30 01:31:11;;;;;;;1.87;1.03;;;4.30;99.90;;;;;;5073863;28;20913;-67
2022/01/30 01:36:03;;;;;;;1.20;0.70;;;4.30;99.90;;;;;;5058324;28;20420;-67
2022/01/30 01:38:28;;;;;;;1.70;0.97;;;4.30;99.90;;;;;;5065214;28;20784;-67
2022/01/30 01:40:55;;;;;;;3.67;1.60;;;4.30;99.90;;;;;;5063177;28;20205;-67
2022/01/30 01:43:25;;;;;;;2.23;0.97;;;4.30;99.90;;;;;;5055542;28;20177;-67
2022/01/30 01:45:53;;;;;;;1.97;1.17;;;4.30;99.90;;;;;;5058519;28;20541;-67
2022/01/30 01:48:19;;;;;;;1.70;1.20;;;4.30;99.90;;;;;;5069724;28;20888;-67
2022/01/30 01:51:05;;;;;;;1.90;0.93;;;4.30;99.90;;;;;;5064674;28;20895;-67
2022/01/30 01:53:30;;;;;;;2.43;1.07;;;4.30;99.90;;;;;;5056232;28;20443;-67
2022/01/30 01:55:57;;;;;;;2.17;1.07;;;4.30;99.90;;;;;;5074928;28;20454;-67
2022/01/30 01:58:27;;;;;;;2.70;0.87;;;4.20;99.90;;;;;;5075554;28;20176;-67
2022/01/30 02:00:53;;;;;;;2.87;0.97;;;4.20;99.90;;;;;;5070343;28;20946;-67
2022/01/30 02:03:22;;;;;;;1.87;1.10;;;4.20;99.90;;;;;;5074028;28;20419;-67
2022/01/30 02:05:52;;;;;;;2.73;1.60;;;4.20;99.90;;;;;;5075581;28;20616;-67
2022/01/30 02:08:30;;;;;;;2.53;0.90;;;4.20;99.90;;;;;;5075836;28;20480;-68
2022/01/30 02:24:40;;;;;;;;;;;;;;;;;;;;;
2022/01/30 02:26:56;;;;;;;2.00;1.13;;;4.20;99.90;;;;;;5054723;28;20496;-68
2022/01/30 02:29:22;;;;;;;2.07;1.33;;;4.20;99.90;;;;;;5054539;28;20495;-68
2022/01/30 02:31:48;;;;;;;1.73;0.90;;;4.20;99.90;;;;;;5054527;28;20248;-68
2022/01/30 02:34:14;;;;;;;1.93;0.90;;;4.10;99.90;;;;;;5069347;28;20443;-68
2022/01/30 02:36:50;;;;;;;1.90;0.90;;;4.20;99.90;;;;;;5057022;28;20577;-68
2022/01/30 02:39:17;;;;;;;3.47;1.20;;;4.20;99.90;;;;;;5074449;28;20168;-68
2022/01/30 02:41:43;;;;;;;1.90;1.17;;;4.10;99.90;;;;;;5074221;28;20459;-68
2022/01/30 02:44:18;;;;;;;2.93;1.50;;;4.10;99.90;;;;;;5074502;28;20430;-68
2022/01/30 02:46:47;;;;;;;2.70;1.23;;;4.10;99.90;;;;;;5073952;28;20502;-68
2022/01/30 02:51:56;;;;;;;1.70;1.00;;;4.10;99.90;;;;;;5074072;28;20775;-68
2022/01/30 02:54:22;;;;;;;2.10;1.10;;;4.10;99.90;;;;;;5074132;28;20395;-68
2022/01/30 02:56:48;;;;;;;2.63;1.07;;;4.10;99.90;;;;;;5073769;28;20506;-68
2022/01/30 02:59:14;;;;;;;1.70;0.93;;;4.10;99.90;;;;;;5068324;28;20418;-68
2022/01/30 03:01:40;;;;;;;3.53;1.63;;;4.10;99.90;;;;;;5053523;28;20801;-68
2022/01/30 03:04:08;;;;;;;1.57;0.97;;;4.10;99.90;;;;;;5057584;28;20411;-68
2022/01/30 03:06:34;;;;;;;3.87;1.43;;;4.10;99.90;;;;;;5073430;28;20170;-68
2022/01/30 03:09:05;;;;;;;1.70;1.07;;;4.10;99.90;;;;;;5073035;28;20404;-68
2022/01/30 03:11:31;;;;;;;3.57;1.17;;;4.10;99.90;;;;;;5056448;28;20409;-68
2022/01/30 03:13:57;;;;;;;3.40;1.10;;;4.10;99.90;;;;;;5071081;28;20423;-68
2022/01/30 03:16:23;;;;;;;2.40;1.30;;;4.20;99.90;;;;;;5073537;28;20181;-68
2022/01/30 03:18:49;;;;;;;3.63;1.50;;;4.10;99.90;;;;;;5069808;28;20182;-68
2022/01/30 03:21:15;;;;;;;1.60;0.80;;;4.10;99.90;;;;;;5064246;28;20641;-68
2022/01/30 03:23:40;;;;;;;2.37;1.27;;;4.10;99.90;;;;;;5073042;28;20419;-68
2022/01/30 03:26:07;;;;;;;2.10;0.77;;;4.10;99.90;;;;;;5072717;28;20188;-68
2022/01/30 03:28:33;;;;;;;1.63;0.83;;;4.10;99.90;;;;;;5067432;28;20181;-69
2022/01/30 03:31:03;;;;;;;2.33;1.27;;;4.20;99.90;;;;;;5067789;28;20892;-67
2022/01/30 03:33:30;;;;;;;3.53;1.27;;;4.00;99.90;;;;;;5073049;28;20454;-68
2022/01/30 03:35:56;;;;;;;1.53;0.80;;;4.00;99.90;;;;;;5056658;28;20420;-68
2022/01/30 03:38:22;;;;;;;1.80;0.97;;;4.00;99.90;;;;;;5067230;28;20426;-68
2022/01/30 03:40:49;;;;;;;2.77;1.43;;;4.10;99.90;;;;;;5072236;28;20643;-69
2022/01/30 03:43:15;;;;;;;2.50;1.10;;;4.10;99.90;;;;;;5071726;28;20418;-68
2022/01/30 03:45:41;;;;;;;1.93;0.90;;;4.10;99.90;;;;;;5058052;28;20416;-68
2022/01/30 03:48:07;;;;;;;1.80;1.20;;;4.10;99.90;;;;;;5059907;28;20418;-68
2022/01/30 03:50:33;;;;;;;2.37;1.40;;;4.10;99.90;;;;;;5065251;28;21001;-68
2022/01/30 03:52:59;;;;;;;1.60;0.80;;;4.10;99.90;;;;;;5065962;28;20178;-69
2022/01/30 03:55:25;;;;;;;1.53;0.93;;;4.10;99.90;;;;;;5053096;28;20416;-68
2022/01/30 03:57:51;;;;;;;1.70;1.00;;;4.20;99.90;;;;;;5066669;28;20206;-69
2022/01/30 04:00:17;;;;;;;2.47;1.13;;;4.20;99.90;;;;;;5058893;28;20644;-69
2022/01/30 04:02:43;;;;;;;1.50;0.80;;;4.10;99.90;;;;;;5070407;28;20459;-69
2022/01/30 04:05:08;;;;;;;2.80;1.40;;;4.10;99.90;;;;;;5070820;28;20655;-69
2022/01/30 04:07:35;;;;;;;1.77;0.90;;;4.10;99.90;;;;;;5072796;28;20182;-69
2022/01/30 04:10:02;;;;;;;1.77;0.73;;;4.20;99.90;;;;;;5061651;28;20657;-69
2022/01/30 04:12:28;;;;;;;2.83;1.13;;;4.10;99.90;;;;;;5051916;28;20419;-69
2022/01/30 04:14:54;;;;;;;4.47;1.10;;;4.10;99.90;;;;;;5062868;28;20407;-69
2022/01/30 04:17:20;;;;;;;2.10;1.00;;;4.10;99.90;;;;;;5071602;28;20696;-69
2022/01/30 04:19:46;;;;;;;2.07;1.20;;;4.10;99.90;;;;;;5071080;28;20275;-68
2022/01/30 04:22:12;;;;;;;2.47;1.00;;;4.10;99.90;;;;;;5060201;28;20788;-68
2022/01/30 04:24:39;;;;;;;1.37;0.63;;;4.10;99.90;;;;;;5068356;28;20424;-68
2022/01/30 04:27:05;;;;;;;2.13;0.80;;;4.10;99.90;;;;;;5074160;28;20473;-68
2022/01/30 04:29:31;;;;;;;2.20;0.93;;;4.10;99.90;;;;;;5070733;28;21193;-68
2022/01/30 04:31:57;;;;;;;4.17;0.97;;;4.10;99.90;;;;;;5067890;28;20542;-69
2022/01/30 04:34:24;;;;;;;1.70;0.90;;;4.10;99.90;;;;;;5051468;28;20506;-68
2022/01/30 04:37:14;;;;;;;3.43;1.70;;;4.10;99.90;;;;;;5056661;28;20442;-68
2022/01/30 04:40:10;;;;;;;;;;;;;;;;;;;;;
2022/01/30 04:58:46;;;;;;;3.17;1.80;;;4.30;99.90;;;;;;5074133;28;20495;-68
2022/01/30 05:04:40;;;;;;;2.63;0.90;;;4.30;99.90;;;;;;5059693;28;20414;-68
2022/01/30 05:06:52;;;;;;;4.87;1.07;;;4.30;99.90;;;;;;5056650;28;20538;-68
2022/01/30 05:09:17;;;;;;;2.13;1.20;;;4.30;99.90;;;;;;5072889;28;20445;-68
2022/01/30 05:11:43;;;;;;;16.73;2.50;;;4.30;99.90;;;;;;5069818;28;20452;-68
2022/01/30 05:14:09;;;;;;;3.00;2.10;;;4.40;99.90;;;;;;5074849;28;20532;-69
2022/01/30 05:16:35;;;;;;;8.13;1.73;;;4.50;99.90;;;;;;5063653;28;20915;-69
2022/01/30 05:19:01;;;;;;;3.87;1.60;;;4.50;99.90;;;;;;5061190;28;20424;-69
2022/01/30 05:21:27;;;;;;;4.80;2.23;;;4.40;99.90;;;;;;5063955;28;20945;-69
2022/01/30 05:23:53;;;;;;;4.10;2.10;;;4.50;99.90;;;;;;5071832;28;20185;-69
2022/01/30 05:26:22;;;;;;;4.50;2.10;;;4.50;99.90;;;;;;5074804;28;20223;-69
2022/01/30 05:28:48;;;;;;;6.00;2.47;;;4.50;99.90;;;;;;5074764;28;20411;-68
2022/01/30 05:31:13;;;;;;;13.23;2.20;;;4.50;99.90;;;;;;5056712;28;20434;-68
2022/01/30 05:33:39;;;;;;;3.83;2.30;;;4.50;99.90;;;;;;5074226;28;20177;-68
2022/01/30 05:36:06;;;;;;;3.00;2.07;;;4.50;99.90;;;;;;5072759;28;20192;-68
2022/01/30 05:38:32;;;;;;;8.43;2.77;;;4.50;99.90;;;;;;5054979;28;20197;-68
2022/01/30 05:40:58;;;;;;;11.50;3.60;;;4.50;99.90;;;;;;5054948;28;20447;-68
2022/01/30 05:43:27;;;;;;;6.53;3.10;;;4.60;99.90;;;;;;5054662;28;20258;-68
2022/01/30 05:46:05;;;;;;;9.53;3.20;;;4.60;99.90;;;;;;5069592;28;20617;-68
2022/01/30 05:48:31;;;;;;;5.87;2.60;;;4.60;99.90;;;;;;5073963;28;20461;-68
2022/01/30 05:50:57;;;;;;;8.90;2.20;;;4.50;99.90;;;;;;5074337;28;20411;-68
2022/01/30 05:53:23;;;;;;;6.13;3.50;;;4.50;99.90;;;;;;5074658;28;20181;-68
2022/01/30 05:55:50;;;;;;;4.50;2.20;;;4.50;99.90;;;;;;5068762;28;20340;-68
2022/01/30 05:58:16;;;;;;;8.90;2.60;;;4.50;99.90;;;;;;5074961;28;20170;-68
2022/01/30 06:00:41;;;;;;;7.10;2.63;;;4.50;99.90;;;;;;5066761;28;20427;-68
2022/01/30 06:03:07;;;;;;;7.97;2.23;;;4.50;99.90;;;;;;5071098;28;20647;-68
2022/01/30 06:05:33;;;;;;;7.17;2.23;;;4.50;99.90;;;;;;5067988;28;20192;-68
2022/01/30 06:08:09;;;;;;;9.27;2.63;;;4.40;99.90;;;;;;5067894;28;20216;-68
2022/01/30 06:10:34;;;;;;;8.83;2.70;;;4.40;99.90;;;;;;5055074;28;20679;-68
2022/01/30 06:13:00;;;;;;;9.90;2.03;;;4.40;99.90;;;;;;5055053;28;20449;-68
2022/01/30 06:15:26;;;;;;;3.80;2.10;;;4.40;99.90;;;;;;5062395;28;20202;-67
2022/01/30 06:17:52;;;;;;;8.17;2.13;;;4.30;99.90;;;;;;5074920;28;20181;-68
2022/01/30 06:20:17;;;;;;;6.00;1.87;;;4.40;99.90;;;;;;5074985;28;20177;-68
2022/01/30 06:22:43;;;;;;;4.27;2.17;;;4.30;99.90;;;;;;5074584;28;20219;-68
2022/01/30 06:25:09;;;;;;;5.00;2.00;;;4.30;99.90;;;;;;5074827;28;20173;-68
2022/01/30 06:27:35;;;;;;;4.20;2.10;;;4.20;99.90;;;;;;5063619;28;20205;-67
2022/01/30 06:30:01;;;;;;;3.37;1.70;;;4.20;99.90;;;;;;5054266;28;20688;-68
2022/01/30 06:32:27;;;;;;;12.27;2.67;;;4.20;99.90;;;;;;5054810;28;20180;-67
2022/01/30 06:34:53;;;;;;;6.50;1.80;;;4.20;99.90;;;;;;5072685;28;20514;-67
2022/01/30 06:37:18;;;;;;;5.13;2.10;;;4.20;99.90;;;;;;5074327;28;20602;-68
2022/01/30 06:39:44;;;;;;;9.20;2.50;;;4.20;99.90;;;;;;5074278;28;20420;-68
2022/01/30 06:42:09;;;;;;;8.63;2.43;;;4.10;99.90;;;;;;5061442;28;20190;-68
2022/01/30 06:44:35;;;;;;;12.17;2.10;;;4.10;99.90;;;;;;5074212;28;20177;-68
2022/01/30 06:47:01;;;;;;;6.87;2.00;;;4.10;99.90;;;;;;5074046;28;20181;-67
2022/01/30 06:49:27;;;;;;;6.03;1.40;;;4.00;99.90;;;;;;5074426;28;20631;-67
2022/01/30 06:51:53;;;;;;;9.70;2.60;;;4.00;99.90;;;;;;5074198;28;20452;-67
2022/01/30 06:54:18;;;;;;;13.03;2.60;;;4.00;99.90;;;;;;5058281;28;20219;-67
2022/01/30 06:56:44;;;;;;;10.13;1.93;;;4.00;99.90;;;;;;5053839;28;20185;-67
2022/01/30 06:59:09;;;;;;;6.80;2.30;;;4.00;99.90;;;;;;5055244;28;20170;-67
2022/01/30 07:01:35;;;;;;;3.37;1.43;;;4.00;99.90;;;;;;5060299;28;20233;-67
2022/01/30 07:04:01;;;;;;;4.23;2.43;;;4.00;99.90;;;;;;5056892;28;20181;-67
2022/01/30 07:06:26;;;;;;;7.83;2.23;;;4.00;99.90;;;;;;5054187;28;20169;-67
2022/01/30 07:08:52;;;;;;;8.00;2.50;;;4.00;99.90;;;;;;5054115;28;20543;-67
2022/01/30 07:11:18;;;;;;;6.60;2.53;;;4.00;99.90;;;;;;5053958;28;20260;-67
2022/01/30 07:13:44;;;;;;;6.70;2.43;;;4.00;99.90;;;;;;5066873;28;20180;-67
2022/01/30 07:16:09;;;;;;;5.10;2.23;;;4.00;99.90;;;;;;5074098;28;20181;-67
2022/01/30 07:18:35;;;;;;;12.83;2.50;;;4.00;99.90;;;;;;5073978;28;20404;-68
2022/01/30 07:21:03;;;;;;;13.27;1.93;;;4.00;99.90;;;;;;5074238;28;20201;-68
2022/01/30 07:23:30;;;;;;;3.30;2.27;;;4.00;99.90;;;;;;5074057;28;20161;-68
2022/01/30 07:25:55;;;;;;;3.93;1.93;;;4.00;99.90;;;;;;5073934;28;20404;-68
2022/01/30 07:28:21;;;;;;;8.70;2.77;;;3.90;99.90;;;;;;5073969;28;20883;-67
2022/01/30 07:30:47;;;;;;;5.77;3.10;;;4.00;99.90;;;;;;5073949;28;20173;-67
2022/01/30 07:33:12;;;;;;;6.10;2.57;;;4.00;99.90;;;;;;5073792;28;20218;-67
2022/01/30 07:35:41;;;;;;;5.40;2.73;;;3.90;99.90;;;;;;5073924;28;20241;-67
2022/01/30 07:38:06;;;;;;;9.30;2.63;;;3.90;99.90;;;;;;5056376;28;20178;-67
2022/01/30 07:40:33;;;;;;;7.43;2.93;;;3.90;99.90;;;;;;5056440;28;20442;-67
2022/01/30 07:42:59;;;;;;;11.23;3.70;;;3.90;99.90;;;;;;5073505;28;20208;-67
2022/01/30 07:45:26;;;;;;;6.50;3.13;;;3.90;99.90;;;;;;5073372;28;20451;-67
2022/01/30 07:47:52;;;;;;;5.43;2.20;;;3.90;99.90;;;;;;5073376;28;20403;-67
2022/01/30 07:50:18;;;;;;;13.13;2.60;;;3.90;99.90;;;;;;5073205;28;20490;-68
2022/01/30 07:52:44;;;;;;;6.23;2.20;;;3.90;99.90;;;;;;5073041;28;20177;-68
2022/01/30 07:55:10;;;;;;;11.93;2.63;;;4.00;99.90;;;;;;5073306;28;20219;-68
2022/01/30 07:57:35;;;;;;;8.47;2.50;;;3.90;99.90;;;;;;5073395;28;20442;-66
2022/01/30 08:00:01;;;;;;;7.73;2.80;;;3.90;99.90;;;;;;5073245;28;20494;-67
2022/01/30 08:02:27;;;;;;;11.93;2.00;;;3.90;99.90;;;;;;5072493;28;20262;-67
2022/01/30 08:04:54;;;;;;;3.80;2.00;;;3.90;99.90;;;;;;5052983;28;20746;-67
2022/01/30 08:07:19;;;;;;;12.23;2.77;;;4.00;99.90;;;;;;5057615;28;20215;-68
2022/01/30 08:09:45;;;;;;;9.00;3.20;;;4.00;99.90;;;;;;5073459;28;20411;-67
2022/01/30 08:12:11;;;;;;;4.90;2.83;;;4.00;99.90;;;;;;5072980;28;20267;-67
2022/01/30 08:14:36;;;;;;;6.73;2.37;;;4.00;99.90;;;;;;5073064;28;20578;-67
2022/01/30 08:17:03;;;;;;;13.60;3.13;;;4.00;99.90;;;;;;5053788;28;20188;-67
2022/01/30 08:19:29;;;;;;;7.13;2.10;;;4.10;99.90;;;;;;5052868;28;20181;-67
2022/01/30 08:21:56;;;;;;;9.43;2.73;;;4.10;99.90;;;;;;5052895;28;20827;-67
2022/01/30 08:24:24;;;;;;;6.57;2.53;;;4.20;99.90;;;;;;5052935;28;20176;-67
2022/01/30 08:26:52;;;;;;;8.23;2.50;;;4.20;99.90;;;;;;5052915;28;20487;-67
2022/01/30 08:29:18;;;;;;;11.67;3.63;;;4.20;99.90;;;;;;5057715;28;20458;-67
2022/01/30 08:31:43;;;;;;;10.13;2.47;;;4.20;99.90;;;;;;5073093;28;20416;-67
2022/01/30 08:34:09;;;;;;;8.13;2.40;;;4.20;99.90;;;;;;5072800;28;20177;-67
2022/01/30 08:36:35;;;;;;;5.03;2.27;;;4.20;99.90;;;;;;5073084;28;20181;-67
2022/01/30 08:39:01;;;;;;;9.30;2.60;;;4.20;99.90;;;;;;5073007;28;20188;-66
2022/01/30 08:41:26;;;;;;;15.73;3.90;;;4.10;99.90;;;;;;5055855;28;20243;-66
2022/01/30 08:43:52;;;;;;;13.73;3.53;;;4.30;99.90;;;;;;5052840;28;20609;-66
2022/01/30 08:46:20;;;;;;;10.17;2.17;;;4.70;99.90;;;;;;5036375;28;20695;-67
2022/01/30 08:48:46;;;;;;;5.30;1.70;;;4.90;99.90;;;;;;5066665;28;20624;-68
2022/01/30 08:51:11;;;;;;;9.77;2.33;;;5.10;99.90;;;;;;5065308;28;20432;-67
2022/01/30 08:53:37;;;;;;;4.93;2.00;;;5.10;99.90;;;;;;5066410;28;20189;-67
2022/01/30 08:56:03;;;;;;;8.30;1.13;;;5.20;99.90;;;;;;5066054;28;20192;-67
2022/01/30 08:58:29;;;;;;;8.43;2.03;;;5.20;99.90;;;;;;5065939;28;20214;-66
2022/01/30 09:00:55;;;;;;;4.83;2.30;;;5.20;99.90;;;;;;5070067;28;20185;-67
2022/01/30 09:03:21;;;;;;;7.83;2.30;;;5.20;99.90;;;;;;5061188;28;20438;-66
2022/01/30 09:05:46;;;;;;;5.70;2.10;;;5.10;99.90;;;;;;5065963;28;20188;-67
2022/01/30 09:08:13;;;;;;;5.83;2.00;;;5.10;99.90;;;;;;5066130;28;20185;-65
2022/01/30 09:10:39;;;;;;;6.27;1.43;;;5.20;99.90;;;;;;5058996;28;20227;-66
2022/01/30 09:13:06;;;;;;;5.87;1.90;;;5.10;99.90;;;;;;5064047;28;20568;-66
2022/01/30 09:15:38;;;;;;;12.30;2.80;;;5.00;99.90;;;;;;5054088;28;20470;-66
2022/01/30 09:18:08;;;;;;;20.17;2.77;;;4.90;99.90;;;;;;5059570;28;20466;-66
2022/01/30 09:20:35;;;;;;;7.07;1.90;;;4.80;99.90;;;;;;5076193;28;20462;-65
2022/01/30 09:23:01;;;;;;;7.00;2.00;;;4.70;99.90;;;;;;5057058;28;20482;-66
2022/01/30 09:25:27;;;;;;;3.30;1.60;;;4.60;99.90;;;;;;5064168;28;20476;-66
2022/01/30 09:27:53;;;;;;;6.87;3.43;;;4.70;99.90;;;;;;5071791;28;20251;-66
2022/01/30 09:30:19;;;;;;;5.83;2.70;;;4.80;99.90;;;;;;5072609;28;20893;-66
2022/01/30 09:32:44;;;;;;;3.70;1.60;;;4.80;99.90;;;;;;5072067;28;20425;-66
2022/01/30 09:35:10;;;;;;;15.00;3.10;;;4.90;99.90;;;;;;5060290;28;20216;-66
2022/01/30 09:37:36;;;;;;;6.50;2.50;;;5.10;99.90;;;;;;5064253;28;20260;-66
2022/01/30 09:40:03;;;;;;;14.10;2.77;;;5.20;99.90;;;;;;5070136;28;20213;-66
2022/01/30 09:42:29;;;;;;;19.63;2.57;;;5.20;99.90;;;;;;5066257;28;20209;-66
2022/01/30 09:45:00;;;;;;;5.83;2.33;;;5.20;99.90;;;;;;5070251;28;20435;-66
2022/01/30 09:47:27;;;;;;;4.37;2.27;;;5.20;99.90;;;;;;5062890;28;20419;-65
2022/01/30 09:49:54;;;;;;;8.50;2.70;;;5.30;99.90;;;;;;5071127;28;20856;-66
2022/01/30 09:52:20;;;;;;;9.40;3.07;;;5.30;99.90;;;;;;5059178;28;20459;-67
2022/01/30 09:54:47;;;;;;;8.37;2.57;;;5.30;99.90;;;;;;5065913;28;20428;-66
2022/01/30 09:57:14;;;;;;;8.80;1.70;;;5.40;99.90;;;;;;5065423;28;20491;-66
2022/01/30 09:59:39;;;;;;;18.23;2.70;;;5.50;99.90;;;;;;5067937;28;20474;-66
2022/01/30 10:02:07;;;;;;;6.70;2.70;;;5.50;99.90;;;;;;5069186;28;20467;-66
2022/01/30 10:04:34;;;;;;;6.40;2.30;;;5.40;99.90;;;;;;5045693;28;20178;-66
2022/01/30 10:07:26;;;;;;;3.00;1.63;;;5.50;99.90;;;;;;5069076;28;20423;-66
2022/01/30 10:09:51;;;;;;;6.00;2.17;;;5.40;99.90;;;;;;5061605;28;20949;-66
2022/01/30 10:12:19;;;;;;;3.63;1.70;;;5.30;99.90;;;;;;5063794;28;20428;-66
2022/01/30 10:15:06;;;;;;;11.03;2.10;;;5.20;99.90;;;;;;5077688;28;20199;-66
2022/01/30 10:17:55;;;;;;;12.30;2.60;;;5.20;99.90;;;;;;5058238;28;20416;-66
2022/01/30 10:20:24;;;;;;;9.90;1.80;;;5.10;99.90;;;;;;5069771;28;20838;-66
2022/01/30 10:22:56;;;;;;;6.60;1.90;;;4.90;99.90;;;;;;5065708;28;20490;-67
2022/01/30 10:25:24;;;;;;;6.60;1.40;;;4.90;99.90;;;;;;5058158;28;20514;-67
2022/01/30 10:28:03;;;;;;;4.07;1.73;;;5.00;99.90;;;;;;5063765;28;20420;-66
2022/01/30 10:30:29;;;;;;;8.03;2.13;;;5.10;99.90;;;;;;5059168;28;20752;-66
2022/01/30 10:32:56;;;;;;;5.10;2.13;;;5.00;99.90;;;;;;5071921;28;20430;-66
2022/01/30 10:35:22;;;;;;;9.00;1.60;;;5.00;99.90;;;;;;5069785;28;20605;-66
2022/01/30 10:37:48;;;;;;;5.50;1.33;;;5.10;99.90;;;;;;5059291;28;20843;-66
2022/01/30 10:40:18;;;;;;;4.50;2.23;;;5.40;99.90;;;;;;5070851;28;20499;-67
2022/01/30 10:42:45;;;;;;;7.60;2.33;;;5.70;99.90;;;;;;5063859;28;20222;-67
2022/01/30 10:45:14;;;;;;;5.17;1.27;;;6.00;99.40;;;;;;5069161;28;20439;-68
2022/01/30 10:47:42;;;;;;;10.30;2.30;;;6.00;98.00;;;;;;5078171;28;20446;-68
2022/01/30 10:50:13;;;;;;;11.10;2.17;;;5.90;99.90;;;;;;5067867;28;20475;-68
2022/01/30 10:52:59;;;;;;;7.90;1.77;;;6.30;98.80;;;;;;5062678;28;20492;-67
2022/01/30 10:55:54;;;;;;;4.03;1.30;;;6.40;97.80;;;;;;5067593;28;20415;-66
2022/01/30 10:58:22;;;;;;;13.27;2.93;;;6.50;98.30;;;;;;5038573;28;20452;-67
2022/01/30 11:00:48;;;;;;;4.23;1.60;;;6.40;98.50;;;;;;5069505;28;20887;-66
2022/01/30 11:03:35;;;;;;;8.17;2.30;;;6.50;97.90;;;;;;5061788;28;20475;-66
2022/01/30 11:06:01;;;;;;;4.90;1.57;;;6.40;97.20;;;;;;5055353;28;20579;-66
2022/01/30 11:08:32;;;;;;;11.93;2.60;;;6.10;98.30;;;;;;5068843;28;20831;-66
2022/01/30 11:11:25;;;;;;;4.13;1.70;;;6.10;97.70;;;;;;5068993;28;20423;-66
2022/01/30 11:19:20;;;;;;;4.10;2.00;;;6.30;97.90;;;;;;5062283;28;20826;-65
2022/01/30 11:21:51;;;;;;;9.90;1.90;;;6.20;97.00;;;;;;5063945;28;20478;-65
2022/01/30 11:24:19;;;;;;;6.67;1.90;;;6.30;96.80;;;;;;5061483;28;20459;-65
2022/01/30 11:26:45;;;;;;;4.63;1.50;;;6.20;97.00;;;;;;5067784;28;20455;-66
2022/01/30 11:29:13;;;;;;;13.83;2.47;;;6.10;97.10;;;;;;5068160;28;20508;-67
2022/01/30 11:31:40;;;;;;;5.50;1.83;;;6.10;98.00;;;;;;5059113;28;20439;-67
2022/01/30 11:34:06;;;;;;;6.13;1.77;;;6.30;97.50;;;;;;5057554;28;20477;-69
2022/01/30 11:36:34;;;;;;;4.13;2.13;;;6.40;96.90;;;;;;5056372;28;20514;-68
2022/01/30 11:39:02;;;;;;;8.63;2.87;;;6.40;97.40;;;;;;5056962;28;20785;-68
2022/01/30 11:41:31;;;;;;;7.67;2.77;;;6.40;97.70;;;;;;5065162;28;20457;-68
2022/01/30 11:44:18;;;;;;;7.60;2.27;;;6.20;96.90;;;;;;5060965;28;20419;-68
2022/01/30 11:46:56;;;;;;;3.90;1.30;;;5.90;96.50;;;;;;5060119;28;20424;-68
2022/01/30 11:49:24;;;;;;;12.93;3.00;;;5.70;97.00;;;;;;5064407;28;20941;-68
2022/01/30 11:51:50;;;;;;;7.97;2.60;;;5.90;96.90;;;;;;5064412;28;20420;-67
2022/01/30 11:54:44;;;;;;;5.90;2.10;;;6.20;97.80;;;;;;5067919;28;20748;-67
2022/01/30 11:57:18;;;;;;;13.03;2.10;;;6.20;97.40;;;;;;5063872;28;20439;-67
2022/01/30 11:59:45;;;;;;;3.30;1.27;;;6.30;97.40;;;;;;5063144;28;20419;-68
2022/01/30 12:02:29;;;;;;;4.80;1.80;;;6.60;97.00;;;;;;5059963;28;20536;-68
2022/01/30 12:04:57;;;;;;;12.37;1.90;;;6.50;96.60;;;;;;5067502;28;20522;-68
2022/01/30 12:07:35;;;;;;;14.70;2.40;;;6.80;96.20;;;;;;5066451;28;20445;-68
2022/01/30 12:10:15;;;;;;;7.20;1.77;;;7.00;96.70;;;;;;5063257;28;20416;-68
2022/01/30 12:12:59;;;;;;;5.47;1.43;;;7.20;94.10;;;;;;5056069;28;20442;-68
2022/01/30 12:15:40;;;;;;;4.40;1.70;;;7.30;94.50;;;;;;5067275;28;20478;-69
2022/01/30 12:18:19;;;;;;;25.83;2.03;;;7.40;93.50;;;;;;5066880;28;20426;-68
2022/01/30 12:20:59;;;;;;;6.80;1.57;;;7.30;93.60;;;;;;5060817;28;20452;-68
2022/01/30 12:23:25;;;;;;;4.33;1.87;;;7.00;93.80;;;;;;5063298;28;20419;-67
2022/01/30 12:26:03;;;;;;;8.07;2.17;;;7.10;93.60;;;;;;5064073;28;20426;-68
2022/01/30 12:28:51;;;;;;;4.53;1.60;;;7.00;95.00;;;;;;5060649;28;20185;-67
2022/01/30 12:31:38;;;;;;;6.03;1.87;;;7.00;93.60;;;;;;5058492;28;20502;-68
2022/01/30 12:34:08;;;;;;;6.30;2.23;;;6.80;93.30;;;;;;5060665;28;20771;-68
2022/01/30 12:36:39;;;;;;;5.47;1.63;;;6.80;93.90;;;;;;5066998;28;20766;-68
2022/01/30 12:39:06;;;;;;;4.60;1.63;;;6.70;93.50;;;;;;5067267;28;21066;-68
2022/01/30 12:41:33;;;;;;;4.40;1.33;;;6.80;94.10;;;;;;5063002;28;20464;-68
2022/01/30 12:44:05;;;;;;;11.37;1.20;;;6.80;94.40;;;;;;5057850;28;20423;-67
2022/01/30 12:46:36;;;;;;;10.00;2.03;;;6.80;94.60;;;;;;5060842;28;20445;-67
2022/01/30 12:49:31;;;;;;;3.07;1.27;;;6.80;93.60;;;;;;5067860;28;20435;-68
2022/01/30 12:52:01;;;;;;;3.57;1.37;;;6.80;93.80;;;;;;5057543;28;20470;-68
2022/01/30 12:54:36;;;;;;;6.10;1.67;;;6.60;93.80;;;;;;5075435;28;20847;-68
2022/01/30 12:57:03;;;;;;;6.03;2.37;;;6.50;93.80;;;;;;5070770;28;20976;-68
2022/01/30 12:59:29;;;;;;;8.90;1.97;;;6.20;94.00;;;;;;5058122;28;20427;-69
2022/01/30 13:02:06;;;;;;;5.90;1.67;;;6.10;94.70;;;;;;5057475;28;20456;-68
2022/01/30 13:04:32;;;;;;;5.87;1.70;;;5.90;94.20;;;;;;5065984;28;20407;-68
2022/01/30 13:06:58;;;;;;;4.33;1.67;;;5.90;94.80;;;;;;5069985;28;20996;-67
2022/01/30 13:09:31;;;;;;;7.80;2.97;;;6.00;95.00;;;;;;5070955;28;20184;-68
2022/01/30 13:12:11;;;;;;;10.77;2.53;;;6.10;94.70;;;;;;5060934;28;20661;-67
2022/01/30 13:14:38;;;;;;;12.33;2.77;;;6.00;94.30;;;;;;5061655;28;20537;-67
2022/01/30 13:17:08;;;;;;;7.90;1.57;;;6.00;94.50;;;;;;5067782;28;20545;-67
2022/01/30 13:19:34;;;;;;;3.93;1.10;;;5.90;94.90;;;;;;5064951;28;20422;-66
2022/01/30 13:22:01;;;;;;;14.40;2.10;;;5.90;95.10;;;;;;5065990;28;20527;-67
2022/01/30 13:24:27;;;;;;;9.77;1.70;;;5.90;95.00;;;;;;5067009;28;20185;-67
2022/01/30 13:27:08;;;;;;;7.23;1.80;;;6.00;94.60;;;;;;5065728;28;20529;-66
2022/01/30 13:29:36;;;;;;;4.27;1.63;;;5.90;94.30;;;;;;5067154;28;20712;-67
2022/01/30 13:32:08;;;;;;;4.80;1.60;;;6.00;94.70;;;;;;5065797;28;20749;-66
2022/01/30 13:34:34;;;;;;;22.83;1.83;;;6.10;94.10;;;;;;5055494;28;20519;-66
2022/01/30 13:37:02;;;;;;;4.37;1.33;;;6.20;94.20;;;;;;5065673;28;20888;-67
2022/01/30 13:39:34;;;;;;;13.87;2.30;;;6.30;93.60;;;;;;5067392;28;20784;-67
2022/01/30 13:47:43;;;;;;;7.23;1.87;;;6.80;92.10;;;;;;5018755;28;20819;-66
2022/01/30 13:50:16;;;;;;;12.33;1.37;;;6.50;92.50;;;;;;5067420;28;20419;-66
2022/01/30 13:52:41;;;;;;;4.60;1.53;;;6.50;92.30;;;;;;5067136;28;20181;-66
2022/01/30 13:55:07;;;;;;;15.20;2.20;;;6.50;92.90;;;;;;5073762;28;20465;-67
2022/01/30 13:57:38;;;;;;;14.23;2.03;;;6.40;93.00;;;;;;5062459;28;20205;-66
2022/01/30 14:00:05;;;;;;;2.17;1.20;;;6.40;93.60;;;;;;5066092;28;20264;-66
2022/01/30 14:02:31;;;;;;;4.23;1.73;;;6.30;93.20;;;;;;5065739;28;20528;-66
2022/01/30 14:05:23;;;;;;;3.83;1.60;;;6.30;93.50;;;;;;5065172;28;20420;-67
2022/01/30 14:07:50;;;;;;;8.33;1.50;;;6.30;92.90;;;;;;5062145;28;20185;-66